Terminal Aerodrome Forecast
Issued by NWS Cleveland, OH

Home | Current Version | Previous Version | Graphics & Text | Print | Product List | Glossary On
Versions: 1 2 3 4 5 6 7 8 9 10 11 12 13 14
000
FTUS41 KCLE 252328
TAFYNG
TAF
KYNG 252328Z 2600/2624 27008KT P6SM OVC050
     FM260400 27005KT P6SM OVC035
      TEMPO 2606/2610 -SHRA OVC025
     FM261000 29005KT P6SM VCSH OVC025
     FM261600 30008KT P6SM OVC035=

USA.gov is the U.S. government's official web portal to all federal, state and local government web resources and services.